Time;durP1;ratioP1;P1;durP2;ratioP2;P2;SDS_P1;SDS_P2;PMS_P1;PMS_P2;Temp;Humidity;BMP_temperature;BMP_pressure;BME280_temperature;BME280_humidity;BME280_pressure;Samples;Min_cycle;Max_cycle;Signal;HPM_P1;HPM_P2
2023/05/17 00:01:43;;;;;;;11.00;3.22;;;8.90;99.90;;;;;;5016275;28;20053;-72
2023/05/17 00:04:09;;;;;;;10.88;3.47;;;9.00;99.90;;;;;;5016202;28;20050;-72
2023/05/17 00:06:35;;;;;;;9.98;3.42;;;9.00;99.90;;;;;;5016210;28;20038;-72
2023/05/17 00:09:01;;;;;;;11.00;3.35;;;9.00;99.90;;;;;;5014924;28;20475;-74
2023/05/17 00:11:27;;;;;;;8.65;3.53;;;9.10;99.90;;;;;;5016880;28;20054;-73
2023/05/17 00:13:53;;;;;;;13.60;3.22;;;9.20;99.90;;;;;;5016513;28;20426;-72
2023/05/17 00:16:18;;;;;;;10.00;3.45;;;9.20;99.90;;;;;;5014757;28;20052;-73
2023/05/17 00:18:44;;;;;;;11.35;3.35;;;9.20;99.90;;;;;;5015947;28;20049;-74
2023/05/17 00:21:10;;;;;;;7.43;2.92;;;9.20;99.90;;;;;;5015996;28;20054;-73
2023/05/17 00:23:35;;;;;;;8.95;3.08;;;9.20;99.90;;;;;;5015576;28;20057;-73
2023/05/17 00:26:01;;;;;;;10.98;2.80;;;9.20;99.90;;;;;;4999133;28;20064;-73
2023/05/17 00:28:27;;;;;;;8.98;2.55;;;9.20;99.90;;;;;;5015470;28;20109;-73
2023/05/17 00:30:52;;;;;;;7.30;2.70;;;9.10;99.90;;;;;;5016257;28;20050;-73
2023/05/17 00:33:18;;;;;;;6.95;2.42;;;9.10;99.90;;;;;;5015641;28;20042;-73
2023/05/17 00:35:43;;;;;;;5.97;2.53;;;9.00;99.90;;;;;;5015545;28;20084;-73
2023/05/17 00:38:09;;;;;;;8.93;2.20;;;9.00;99.90;;;;;;5014991;28;20053;-73
2023/05/17 00:40:35;;;;;;;7.25;2.40;;;8.90;99.90;;;;;;5017733;28;20049;-74
2023/05/17 00:43:00;;;;;;;7.22;2.33;;;8.90;99.90;;;;;;5018158;28;20096;-73
2023/05/17 00:45:26;;;;;;;8.45;2.58;;;8.80;99.90;;;;;;5015967;28;20486;-74
2023/05/17 00:47:52;;;;;;;6.53;2.50;;;8.70;99.90;;;;;;5015708;28;20046;-73
2023/05/17 00:50:17;;;;;;;9.30;2.70;;;8.70;99.90;;;;;;4997930;28;20086;-73
2023/05/17 00:52:43;;;;;;;8.93;2.80;;;8.60;99.90;;;;;;5015257;28;20120;-74
2023/05/17 00:55:09;;;;;;;8.85;2.60;;;8.50;99.90;;;;;;5015176;28;20133;-73
2023/05/17 00:57:35;;;;;;;7.60;2.60;;;8.50;99.90;;;;;;5015768;28;20041;-74
2023/05/17 01:00:01;;;;;;;13.48;3.25;;;8.50;99.90;;;;;;4997956;28;20045;-74
2023/05/17 01:02:27;;;;;;;7.25;2.38;;;8.40;99.90;;;;;;5015682;28;20100;-74
2023/05/17 01:04:53;;;;;;;9.15;2.17;;;8.30;99.90;;;;;;5015085;28;20050;-73
2023/05/17 01:07:18;;;;;;;10.63;3.20;;;8.30;99.90;;;;;;5014972;28;20045;-73
2023/05/17 01:09:44;;;;;;;9.10;2.08;;;8.20;99.90;;;;;;5015034;28;20053;-73
2023/05/17 01:12:25;;;;;;;6.65;2.28;;;8.20;99.90;;;;;;5014945;28;20529;-73
2023/05/17 01:15:09;;;;;;;14.88;2.63;;;8.20;99.90;;;;;;5014837;28;20504;-73
2023/05/17 01:17:59;;;;;;;7.38;2.63;;;8.20;99.90;;;;;;5014836;28;20384;-73
2023/05/17 01:20:40;;;;;;;7.00;2.15;;;8.10;99.90;;;;;;5010772;28;20077;-73
2023/05/17 01:23:16;;;;;;;6.70;2.60;;;8.10;99.90;;;;;;5014767;28;20088;-73
2023/05/17 01:26:00;;;;;;;11.70;2.33;;;8.00;99.90;;;;;;5014561;28;20097;-73
2023/05/17 01:28:27;;;;;;;9.30;2.53;;;7.90;99.90;;;;;;5015225;28;20045;-73
2023/05/17 01:30:56;;;;;;;6.82;2.38;;;7.80;99.90;;;;;;5015225;28;20089;-73
2023/05/17 01:33:22;;;;;;;11.15;2.40;;;7.80;99.90;;;;;;5014459;28;20053;-72
2023/05/17 01:35:47;;;;;;;9.07;2.45;;;7.70;99.90;;;;;;5014482;28;20124;-72
2023/05/17 01:38:13;;;;;;;5.85;2.08;;;7.60;99.90;;;;;;5013991;28;20132;-73
2023/05/17 01:40:50;;;;;;;8.90;2.20;;;7.60;99.90;;;;;;5014467;28;20061;-72
2023/05/17 01:43:25;;;;;;;11.20;2.72;;;7.60;99.90;;;;;;5015046;28;20061;-72
2023/05/17 01:46:08;;;;;;;7.45;2.05;;;7.50;99.90;;;;;;5014903;28;20088;-72
2023/05/17 01:48:38;;;;;;;13.05;2.50;;;7.50;99.90;;;;;;5015186;28;20056;-72
2023/05/17 01:51:06;;;;;;;8.52;2.58;;;7.40;99.90;;;;;;5015183;28;20054;-71
2023/05/17 01:53:38;;;;;;;10.82;2.30;;;7.40;99.90;;;;;;5014170;28;20056;-72
2023/05/17 01:56:16;;;;;;;9.07;2.75;;;7.30;99.90;;;;;;5014900;28;20045;-72
2023/05/17 01:58:46;;;;;;;9.02;2.13;;;7.30;99.90;;;;;;5013932;28;20538;-73
2023/05/17 02:01:17;;;;;;;6.82;2.75;;;7.30;99.90;;;;;;5015012;28;20050;-72
2023/05/17 02:03:46;;;;;;;8.80;2.20;;;7.20;99.90;;;;;;5014220;28;20057;-72
2023/05/17 02:06:12;;;;;;;14.38;3.47;;;7.20;99.90;;;;;;5014101;28;20130;-72
2023/05/17 02:08:37;;;;;;;9.15;2.45;;;7.20;99.90;;;;;;5014644;28;20451;-71
2023/05/17 02:11:03;;;;;;;8.93;2.90;;;7.30;99.90;;;;;;5014074;28;20045;-72
2023/05/17 02:13:29;;;;;;;11.45;2.72;;;7.30;99.90;;;;;;5014059;28;20046;-72
2023/05/17 02:15:58;;;;;;;7.93;2.70;;;7.30;99.90;;;;;;5014342;28;20099;-71
2023/05/17 02:18:25;;;;;;;8.32;2.97;;;7.30;99.90;;;;;;5013932;28;20449;-71
2023/05/17 02:20:51;;;;;;;8.80;2.05;;;7.30;99.90;;;;;;5013872;28;20176;-71
2023/05/17 02:23:16;;;;;;;12.35;2.40;;;7.40;99.90;;;;;;5013839;28;20128;-72
2023/05/17 02:25:42;;;;;;;8.40;2.00;;;7.30;99.90;;;;;;5013783;28;20049;-72
2023/05/17 02:28:08;;;;;;;13.95;2.53;;;7.30;99.90;;;;;;5013551;28;20077;-72
2023/05/17 02:30:39;;;;;;;9.95;2.40;;;7.30;99.90;;;;;;5014560;28;20056;-72
2023/05/17 02:33:05;;;;;;;10.52;2.40;;;7.30;99.90;;;;;;5013848;28;20081;-71
2023/05/17 02:35:31;;;;;;;8.48;2.13;;;7.20;99.90;;;;;;5012789;28;20077;-72
2023/05/17 02:37:57;;;;;;;8.30;2.30;;;7.20;99.90;;;;;;5013774;28;20104;-72
2023/05/17 02:40:22;;;;;;;9.25;2.75;;;7.10;99.90;;;;;;5013949;28;20454;-72
2023/05/17 02:42:48;;;;;;;6.85;2.13;;;7.10;99.90;;;;;;5013742;28;20390;-73
2023/05/17 02:45:14;;;;;;;12.68;2.28;;;7.10;99.90;;;;;;5013717;28;20042;-71
2023/05/17 02:47:39;;;;;;;8.27;2.55;;;7.00;99.90;;;;;;5013633;28;20052;-71
2023/05/17 02:50:06;;;;;;;10.27;2.25;;;7.00;99.90;;;;;;5015256;28;20054;-72
2023/05/17 02:52:31;;;;;;;9.73;2.78;;;7.00;99.90;;;;;;5017827;28;20524;-71
2023/05/17 02:54:57;;;;;;;9.75;2.25;;;7.00;99.90;;;;;;5016483;28;20045;-71
2023/05/17 02:57:23;;;;;;;6.78;1.95;;;7.00;99.90;;;;;;5016894;28;20128;-72
2023/05/17 02:59:49;;;;;;;10.48;3.40;;;7.00;99.90;;;;;;5017925;28;20053;-72
2023/05/17 03:02:14;;;;;;;9.82;2.97;;;7.00;99.90;;;;;;5017391;28;20548;-72
2023/05/17 03:04:40;;;;;;;10.65;2.17;;;6.90;99.90;;;;;;5017509;28;20046;-72
2023/05/17 03:07:06;;;;;;;10.43;2.50;;;6.90;99.90;;;;;;5017808;28;20054;-72
2023/05/17 03:09:32;;;;;;;10.27;2.35;;;6.90;99.90;;;;;;5017814;28;20047;-72
2023/05/17 03:11:58;;;;;;;8.85;2.35;;;6.80;99.90;;;;;;5016535;28;20048;-72
2023/05/17 03:14:23;;;;;;;6.53;1.80;;;6.70;99.90;;;;;;5017205;28;20085;-72
2023/05/17 03:16:49;;;;;;;10.65;2.40;;;6.70;99.90;;;;;;5017114;28;20046;-71
2023/05/17 03:19:15;;;;;;;10.40;2.58;;;6.70;99.90;;;;;;5017134;28;20052;-71
2023/05/17 03:21:40;;;;;;;7.63;2.45;;;6.60;99.90;;;;;;5017037;28;20116;-72
2023/05/17 03:24:09;;;;;;;10.35;2.28;;;6.50;99.90;;;;;;5017177;28;20058;-72
2023/05/17 03:26:35;;;;;;;8.43;2.05;;;6.50;99.90;;;;;;5017557;28;20046;-72
2023/05/17 03:29:00;;;;;;;10.63;3.65;;;6.40;99.90;;;;;;5016883;28;20054;-72
2023/05/17 03:31:26;;;;;;;9.13;1.85;;;6.40;99.90;;;;;;5016776;28;20050;-72
2023/05/17 03:33:52;;;;;;;8.15;2.17;;;6.40;99.90;;;;;;5016234;28;20049;-73
2023/05/17 03:36:17;;;;;;;9.93;2.22;;;6.30;99.90;;;;;;5016739;28;20093;-73
2023/05/17 03:38:43;;;;;;;7.30;2.30;;;6.30;99.90;;;;;;5016835;28;20128;-72
2023/05/17 03:41:09;;;;;;;8.05;2.22;;;6.30;99.90;;;;;;5016598;28;20046;-72
2023/05/17 03:43:35;;;;;;;8.13;2.42;;;6.30;99.90;;;;;;5016511;28;20065;-73
2023/05/17 03:46:01;;;;;;;8.35;2.15;;;6.40;99.90;;;;;;5016574;28;20387;-73
2023/05/17 03:48:27;;;;;;;9.85;2.30;;;6.50;99.90;;;;;;5016433;28;20046;-73
2023/05/17 03:50:52;;;;;;;7.80;2.20;;;6.50;99.90;;;;;;5016976;28;20054;-73
2023/05/17 03:53:18;;;;;;;12.15;3.15;;;6.60;99.90;;;;;;5017253;28;20045;-73
2023/05/17 03:55:44;;;;;;;7.00;3.15;;;6.60;99.90;;;;;;5016322;28;20038;-73
2023/05/17 03:58:10;;;;;;;8.85;2.05;;;6.70;99.90;;;;;;5016326;28;20394;-73
2023/05/17 04:00:35;;;;;;;7.18;1.85;;;6.90;99.90;;;;;;5014374;28;20042;-73
2023/05/17 04:03:01;;;;;;;9.95;2.75;;;6.90;99.90;;;;;;5016262;28;20045;-73
2023/05/17 04:05:27;;;;;;;10.15;2.30;;;7.00;99.90;;;;;;5016291;28;20042;-73
2023/05/17 04:07:53;;;;;;;8.63;2.10;;;7.00;99.90;;;;;;5016183;28;20050;-73
2023/05/17 04:10:19;;;;;;;9.48;1.88;;;7.00;99.90;;;;;;5016658;28;20042;-73
2023/05/17 04:12:44;;;;;;;10.88;2.38;;;7.20;99.90;;;;;;5016103;28;20050;-73
2023/05/17 04:15:10;;;;;;;6.28;1.80;;;7.20;99.90;;;;;;5015064;28;20061;-73
2023/05/17 04:17:36;;;;;;;8.48;1.77;;;7.30;99.90;;;;;;5016028;28;20046;-73
2023/05/17 04:20:05;;;;;;;9.27;2.17;;;7.30;99.90;;;;;;5015999;28;20046;-73
2023/05/17 04:22:31;;;;;;;8.90;2.10;;;7.40;99.90;;;;;;5014784;28;20050;-73
2023/05/17 04:24:57;;;;;;;11.15;2.10;;;7.40;99.90;;;;;;5015790;28;20054;-73
2023/05/17 04:27:22;;;;;;;7.68;1.70;;;7.40;99.90;;;;;;5015871;28;20068;-73
2023/05/17 04:29:48;;;;;;;7.00;1.73;;;7.40;99.90;;;;;;5015587;28;20046;-73
2023/05/17 04:32:14;;;;;;;9.55;2.67;;;7.50;99.90;;;;;;5015832;28;20387;-74
2023/05/17 04:34:40;;;;;;;8.20;2.28;;;7.50;99.90;;;;;;5015646;28;20534;-73
2023/05/17 04:37:06;;;;;;;9.70;2.00;;;7.50;99.90;;;;;;5015534;28;20038;-73
2023/05/17 04:39:32;;;;;;;11.00;2.60;;;7.60;99.90;;;;;;5015579;28;20042;-73
2023/05/17 04:41:57;;;;;;;8.23;2.70;;;7.60;99.90;;;;;;5014324;28;20052;-73
2023/05/17 04:44:23;;;;;;;5.88;1.98;;;7.70;99.90;;;;;;5015424;28;20045;-73
2023/05/17 04:46:49;;;;;;;8.05;1.95;;;7.70;99.90;;;;;;5015502;28;20125;-73
2023/05/17 04:49:15;;;;;;;6.60;2.17;;;7.80;99.90;;;;;;5015393;28;20091;-73
2023/05/17 04:51:40;;;;;;;9.30;2.03;;;7.80;99.90;;;;;;5015941;28;20140;-73
2023/05/17 04:54:07;;;;;;;7.25;2.03;;;7.80;99.90;;;;;;5014115;28;20376;-73
2023/05/17 04:56:35;;;;;;;7.80;2.10;;;7.90;99.90;;;;;;5015068;28;20053;-73
2023/05/17 04:59:01;;;;;;;7.20;2.13;;;7.80;99.90;;;;;;5015213;28;20395;-73
2023/05/17 05:01:29;;;;;;;12.02;2.00;;;7.90;99.90;;;;;;5015944;28;20054;-73
2023/05/17 05:03:56;;;;;;;6.22;2.10;;;8.00;99.90;;;;;;5016259;28;20046;-73
2023/05/17 05:06:22;;;;;;;8.82;2.20;;;8.00;99.90;;;;;;5017493;28;20081;-73
2023/05/17 05:08:48;;;;;;;8.18;2.15;;;8.00;99.90;;;;;;5015479;28;20143;-74
2023/05/17 05:11:13;;;;;;;7.03;1.90;;;8.00;99.90;;;;;;5015681;28;20348;-71
2023/05/17 05:13:40;;;;;;;4.35;1.67;;;8.00;99.90;;;;;;5014162;28;20053;-72
2023/05/17 05:16:06;;;;;;;6.13;2.10;;;8.00;99.90;;;;;;5014928;28;20160;-71
2023/05/17 05:18:32;;;;;;;8.95;2.50;;;8.10;99.90;;;;;;5013904;28;20046;-71
2023/05/17 05:20:58;;;;;;;8.13;2.28;;;8.10;99.90;;;;;;5014794;28;20050;-71
2023/05/17 05:23:24;;;;;;;10.02;1.67;;;8.20;99.90;;;;;;5014746;28;20057;-71
2023/05/17 05:25:50;;;;;;;7.43;1.50;;;8.20;99.90;;;;;;5015381;28;20065;-73
2023/05/17 05:28:15;;;;;;;4.03;1.30;;;8.30;99.90;;;;;;5014752;28;20491;-71
2023/05/17 05:30:41;;;;;;;6.18;1.35;;;8.40;99.90;;;;;;5015426;28;20136;-71
2023/05/17 05:33:07;;;;;;;7.72;1.67;;;8.50;99.90;;;;;;5014653;28;20038;-73
2023/05/17 05:35:32;;;;;;;3.75;1.20;;;8.60;99.90;;;;;;5014110;28;20046;-71
2023/05/17 05:37:59;;;;;;;6.05;1.52;;;8.60;99.90;;;;;;5014398;28;20088;-73
2023/05/17 05:40:24;;;;;;;5.20;1.27;;;8.70;99.90;;;;;;5013790;28;20119;-72
2023/05/17 05:42:51;;;;;;;6.45;1.65;;;8.80;99.90;;;;;;5014690;28;20120;-72
2023/05/17 05:45:17;;;;;;;5.03;1.20;;;8.80;99.90;;;;;;5014956;28;20045;-72
2023/05/17 05:47:43;;;;;;;5.68;1.50;;;8.90;99.90;;;;;;5014375;28;20038;-72
2023/05/17 05:50:09;;;;;;;10.10;1.33;;;8.90;99.90;;;;;;5014557;28;20052;-72
2023/05/17 05:52:35;;;;;;;8.48;1.38;;;9.00;99.90;;;;;;5014346;28;20148;-72
2023/05/17 05:55:01;;;;;;;5.30;1.10;;;9.00;99.90;;;;;;5014089;28;20054;-73
2023/05/17 05:57:26;;;;;;;6.25;1.58;;;9.20;99.90;;;;;;5014501;28;20050;-74
2023/05/17 05:59:52;;;;;;;7.50;1.75;;;9.30;99.90;;;;;;5013276;28;20530;-74
2023/05/17 06:02:18;;;;;;;5.97;1.30;;;9.30;99.90;;;;;;5014151;28;20380;-74
2023/05/17 06:04:46;;;;;;;3.65;1.48;;;9.30;99.90;;;;;;5014132;28;20042;-73
2023/05/17 06:07:12;;;;;;;4.75;1.30;;;9.30;99.90;;;;;;5013881;28;20376;-72
2023/05/17 06:09:38;;;;;;;4.47;1.20;;;9.30;99.90;;;;;;5014356;28;20046;-71
2023/05/17 06:12:04;;;;;;;5.28;1.20;;;9.20;99.90;;;;;;5014621;28;20434;-72
2023/05/17 06:14:29;;;;;;;5.60;1.33;;;9.30;99.90;;;;;;5013984;28;20054;-72
2023/05/17 06:16:55;;;;;;;5.00;1.50;;;9.30;99.90;;;;;;5013845;28;20042;-64
2023/05/17 06:19:21;;;;;;;5.53;1.38;;;9.40;99.90;;;;;;5013917;28;20045;-64
2023/05/17 06:21:47;;;;;;;4.20;1.42;;;9.40;99.90;;;;;;5014431;28;20081;-64
2023/05/17 06:24:12;;;;;;;9.30;2.15;;;9.50;99.90;;;;;;5013451;28;20084;-64
2023/05/17 06:26:39;;;;;;;4.22;1.10;;;9.60;99.90;;;;;;5014079;28;20046;-64
2023/05/17 06:29:05;;;;;;;4.68;1.20;;;9.70;99.90;;;;;;5013485;28;20495;-64
2023/05/17 06:31:31;;;;;;;5.03;1.20;;;9.80;99.90;;;;;;5013795;28;20124;-65
2023/05/17 06:33:56;;;;;;;4.53;1.10;;;9.90;99.90;;;;;;5014286;28;20360;-64
2023/05/17 06:36:22;;;;;;;4.97;1.40;;;10.00;99.90;;;;;;5013667;28;20128;-64
2023/05/17 06:38:48;;;;;;;6.22;1.38;;;10.00;99.90;;;;;;5013534;28;20069;-64
2023/05/17 06:41:13;;;;;;;2.42;1.02;;;10.00;99.90;;;;;;5013737;28;20052;-65
2023/05/17 06:43:39;;;;;;;6.82;1.40;;;10.10;99.90;;;;;;5013827;28;20096;-65
2023/05/17 06:46:05;;;;;;;3.85;1.42;;;10.10;99.90;;;;;;5013671;28;20046;-65
2023/05/17 06:48:31;;;;;;;6.13;1.55;;;10.10;99.90;;;;;;5013773;28;20050;-65
2023/05/17 06:50:56;;;;;;;6.18;1.88;;;10.10;99.90;;;;;;5013662;28;20448;-65
2023/05/17 06:53:22;;;;;;;5.85;1.35;;;10.10;99.90;;;;;;5013533;28;20506;-65
2023/05/17 06:55:48;;;;;;;4.68;1.13;;;10.10;99.90;;;;;;5014268;28;20048;-65
2023/05/17 06:58:13;;;;;;;7.57;1.13;;;10.10;99.90;;;;;;5014051;28;20544;-65
2023/05/17 07:00:39;;;;;;;3.63;1.10;;;10.00;99.90;;;;;;5013560;28;20049;-64
2023/05/17 07:03:05;;;;;;;4.00;1.20;;;10.00;99.90;;;;;;5013248;28;20041;-65
2023/05/17 07:05:30;;;;;;;6.88;2.58;;;10.00;99.90;;;;;;5013575;28;20045;-65
2023/05/17 07:07:57;;;;;;;5.90;1.08;;;10.00;99.90;;;;;;5013378;28;20522;-65
2023/05/17 07:10:23;;;;;;;4.95;1.10;;;10.10;99.90;;;;;;5013981;28;20050;-65
2023/05/17 07:12:49;;;;;;;5.72;1.17;;;10.30;99.90;;;;;;5013404;28;20502;-65
2023/05/17 07:15:14;;;;;;;5.28;1.40;;;10.50;99.90;;;;;;5013340;28;20038;-65
2023/05/17 07:17:40;;;;;;;6.28;1.33;;;10.60;99.90;;;;;;5013315;28;20053;-65
2023/05/17 07:20:06;;;;;;;7.75;1.45;;;10.70;99.90;;;;;;5013674;28;20129;-65
2023/05/17 07:22:32;;;;;;;6.20;1.52;;;10.80;99.90;;;;;;5013832;28;20356;-65
2023/05/17 07:24:58;;;;;;;7.35;1.73;;;10.90;99.90;;;;;;5012802;28;20054;-65
2023/05/17 07:27:24;;;;;;;4.72;1.33;;;10.80;99.90;;;;;;5012711;28;20129;-73
2023/05/17 07:29:50;;;;;;;6.80;1.50;;;10.80;99.90;;;;;;5013800;28;20521;-73
2023/05/17 07:32:16;;;;;;;5.05;1.40;;;10.80;99.90;;;;;;5013204;28;20466;-74
2023/05/17 07:34:42;;;;;;;5.15;1.33;;;10.70;99.90;;;;;;5013875;28;20387;-75
2023/05/17 07:37:08;;;;;;;4.43;1.30;;;10.70;99.90;;;;;;5016488;28;20042;-73
2023/05/17 07:39:33;;;;;;;6.65;1.50;;;10.60;99.90;;;;;;5016713;28;20045;-73
2023/05/17 07:41:59;;;;;;;6.55;1.52;;;10.60;99.90;;;;;;5016543;28;20056;-75
2023/05/17 07:44:25;;;;;;;6.00;1.23;;;10.60;99.90;;;;;;5016437;28;20046;-72
2023/05/17 07:46:51;;;;;;;6.43;1.52;;;10.70;99.90;;;;;;5016506;28;20121;-72
2023/05/17 07:49:17;;;;;;;7.55;1.52;;;10.80;99.90;;;;;;5016490;28;20156;-73
2023/05/17 07:51:43;;;;;;;5.93;1.73;;;10.90;99.90;;;;;;5016984;28;20129;-72
2023/05/17 07:54:08;;;;;;;4.43;1.65;;;10.90;99.90;;;;;;5015477;28;20054;-73
2023/05/17 07:56:34;;;;;;;4.65;1.20;;;10.90;99.90;;;;;;5016291;28;20053;-74
2023/05/17 07:59:00;;;;;;;5.88;1.67;;;10.90;99.90;;;;;;5017218;28;20506;-74
2023/05/17 08:01:26;;;;;;;5.35;1.63;;;11.00;99.90;;;;;;5015034;28;20457;-73
2023/05/17 08:03:52;;;;;;;8.45;1.98;;;11.00;99.90;;;;;;5016555;28;20058;-73
2023/05/17 08:06:18;;;;;;;7.18;1.80;;;11.00;99.90;;;;;;5016565;28;20457;-73
2023/05/17 08:08:44;;;;;;;6.40;1.52;;;11.10;99.90;;;;;;5014980;28;20128;-73
2023/05/17 08:11:11;;;;;;;3.33;1.38;;;11.10;99.90;;;;;;5016047;28;20053;-74
2023/05/17 08:13:37;;;;;;;9.25;1.90;;;11.10;99.90;;;;;;5015147;28;20472;-69
2023/05/17 08:16:06;;;;;;;8.18;1.70;;;11.20;99.90;;;;;;5015481;28;20367;-68
2023/05/17 08:18:32;;;;;;;7.18;2.05;;;11.20;99.90;;;;;;5015693;28;20483;-70
2023/05/17 08:20:58;;;;;;;7.72;1.88;;;11.20;99.90;;;;;;5015951;28;20438;-70
2023/05/17 08:23:24;;;;;;;5.10;1.67;;;11.20;99.90;;;;;;5015845;28;20091;-69
2023/05/17 08:25:51;;;;;;;6.60;1.75;;;11.20;99.90;;;;;;5016311;28;20069;-70
2023/05/17 08:28:17;;;;;;;4.00;1.42;;;11.20;99.90;;;;;;5014886;28;20053;-74
2023/05/17 08:30:43;;;;;;;6.75;1.58;;;11.20;99.90;;;;;;5014411;28;20045;-77
2023/05/17 08:33:09;;;;;;;8.70;2.10;;;11.30;99.90;;;;;;5014974;28;20099;-77
2023/05/17 08:35:35;;;;;;;8.05;1.50;;;11.30;99.90;;;;;;5016080;28;20132;-73
2023/05/17 08:38:01;;;;;;;5.95;1.27;;;11.30;99.90;;;;;;5014430;28;20049;-74
2023/05/17 08:40:27;;;;;;;8.25;1.90;;;11.40;99.90;;;;;;5015593;28;20045;-74
2023/05/17 08:42:53;;;;;;;4.88;1.58;;;11.50;99.90;;;;;;5015208;28;20132;-74
2023/05/17 08:45:19;;;;;;;5.40;1.30;;;11.60;99.90;;;;;;5015419;28;20053;-74
2023/05/17 08:47:45;;;;;;;4.28;1.20;;;11.60;99.90;;;;;;5015344;28;20056;-74
2023/05/17 08:50:11;;;;;;;5.65;1.65;;;11.60;99.90;;;;;;5015343;28;20157;-74
2023/05/17 08:52:39;;;;;;;6.03;1.25;;;11.80;99.90;;;;;;5014622;28;20061;-75
2023/05/17 08:55:07;;;;;;;4.37;1.50;;;12.00;99.90;;;;;;5015155;28;20052;-73
2023/05/17 08:57:37;;;;;;;5.32;1.58;;;12.10;99.90;;;;;;5015183;28;20046;-81
2023/05/17 09:00:11;;;;;;;4.85;1.40;;;12.30;99.90;;;;;;5015899;28;20072;-77
2023/05/17 09:02:38;;;;;;;6.57;1.33;;;12.30;99.90;;;;;;5015688;28;20089;-77
2023/05/17 09:05:05;;;;;;;6.32;1.42;;;12.30;99.90;;;;;;5015119;28;20045;-79
2023/05/17 09:07:31;;;;;;;5.35;1.50;;;12.40;99.90;;;;;;5014076;28;20049;-82
2023/05/17 09:09:57;;;;;;;7.28;1.00;;;12.60;99.90;;;;;;5014972;28;20483;-75
2023/05/17 09:12:23;;;;;;;5.30;1.23;;;12.70;99.90;;;;;;5014811;28;20088;-76
2023/05/17 09:14:49;;;;;;;3.55;1.20;;;12.80;99.90;;;;;;5013944;28;20050;-74
2023/05/17 09:17:20;;;;;;;5.18;1.55;;;13.00;99.90;;;;;;5014742;28;20037;-74
2023/05/17 09:19:47;;;;;;;5.63;1.65;;;13.00;99.90;;;;;;5014473;28;20058;-75
2023/05/17 09:22:14;;;;;;;5.57;1.48;;;13.00;99.90;;;;;;5014599;28;20077;-74
2023/05/17 09:24:41;;;;;;;8.00;1.40;;;13.00;99.90;;;;;;5013289;28;20097;-75
2023/05/17 09:27:07;;;;;;;5.53;1.30;;;13.00;99.90;;;;;;5015169;28;20096;-74
2023/05/17 09:29:34;;;;;;;5.40;1.60;;;12.80;99.90;;;;;;5014685;28;20046;-74
2023/05/17 09:32:13;;;;;;;5.88;1.45;;;12.80;99.90;;;;;;5014611;28;20057;-74
2023/05/17 09:34:40;;;;;;;4.68;1.40;;;12.80;99.90;;;;;;5014494;28;20475;-73
2023/05/17 09:37:13;;;;;;;4.75;1.40;;;12.80;99.90;;;;;;5013273;28;20054;-73
2023/05/17 09:39:39;;;;;;;6.28;1.65;;;12.90;99.90;;;;;;5014909;28;20387;-76
2023/05/17 09:42:05;;;;;;;3.75;1.38;;;12.90;99.90;;;;;;5014258;28;20046;-75
2023/05/17 09:44:31;;;;;;;8.30;1.50;;;12.90;99.90;;;;;;5013625;28;20050;-75
2023/05/17 09:46:58;;;;;;;6.88;1.65;;;13.00;99.90;;;;;;5015957;28;20050;-74
2023/05/17 09:49:27;;;;;;;7.68;1.42;;;13.10;99.90;;;;;;5015889;28;20567;-74
2023/05/17 09:51:54;;;;;;;6.68;1.23;;;13.10;99.90;;;;;;5016844;28;20491;-74
2023/05/17 09:54:19;;;;;;;8.00;1.60;;;13.10;99.90;;;;;;5013961;28;20471;-75
2023/05/17 09:56:53;;;;;;;5.28;1.27;;;13.00;99.90;;;;;;5014259;28;20045;-75
2023/05/17 09:59:19;;;;;;;7.40;1.63;;;12.90;99.90;;;;;;5013848;28;20050;-72
2023/05/17 10:01:49;;;;;;;9.90;1.70;;;12.70;99.90;;;;;;5012904;28;20053;-73
2023/05/17 10:04:19;;;;;;;6.75;2.10;;;12.70;99.90;;;;;;5013059;28;20112;-75
2023/05/17 10:06:45;;;;;;;6.50;1.90;;;12.80;99.90;;;;;;5013496;28;20083;-71
2023/05/17 10:09:13;;;;;;;9.98;1.90;;;13.30;99.90;;;;;;5014074;28;20108;-77
2023/05/17 10:11:40;;;;;;;5.20;1.30;;;13.50;99.90;;;;;;5012970;28;20049;-74
2023/05/17 10:14:27;;;;;;;4.13;1.48;;;13.50;99.90;;;;;;5013972;28;20045;-77
2023/05/17 10:16:53;;;;;;;6.32;1.60;;;13.30;99.90;;;;;;5014012;28;20058;-77
2023/05/17 10:19:19;;;;;;;5.20;1.30;;;13.10;99.90;;;;;;5014058;28;20467;-74
2023/05/17 10:21:47;;;;;;;4.90;1.20;;;13.00;99.90;;;;;;5014146;28;20139;-72
2023/05/17 10:24:13;;;;;;;5.32;1.30;;;13.00;99.90;;;;;;5013540;28;20049;-72
2023/05/17 10:26:39;;;;;;;6.45;1.42;;;13.20;99.90;;;;;;5013778;28;20049;-72
2023/05/17 10:29:06;;;;;;;5.28;1.40;;;13.60;99.90;;;;;;5014382;28;20050;-72
2023/05/17 10:31:33;;;;;;;6.03;1.42;;;13.90;99.90;;;;;;5013773;28;20375;-72
2023/05/17 10:34:05;;;;;;;6.88;1.30;;;14.00;99.90;;;;;;5013751;28;20053;-72
2023/05/17 10:36:31;;;;;;;4.32;1.33;;;14.00;99.90;;;;;;5013404;28;20499;-72
2023/05/17 10:38:58;;;;;;;6.07;1.20;;;14.00;99.90;;;;;;5014484;28;20085;-72
2023/05/17 10:41:29;;;;;;;4.00;1.08;;;14.00;99.90;;;;;;5013585;28;20116;-71
2023/05/17 10:43:56;;;;;;;4.68;1.10;;;14.10;99.90;;;;;;5013715;28;20037;-72
2023/05/17 10:46:22;;;;;;;4.22;1.80;;;14.40;99.90;;;;;;5014127;28;20049;-73
2023/05/17 10:48:52;;;;;;;5.82;1.20;;;14.80;99.90;;;;;;5013574;28;20050;-73
2023/05/17 10:51:26;;;;;;;3.22;1.10;;;15.10;99.90;;;;;;5014271;28;20089;-72
2023/05/17 10:54:07;;;;;;;3.38;1.30;;;15.20;99.90;;;;;;5013622;28;20107;-72
2023/05/17 10:56:33;;;;;;;4.90;1.35;;;15.00;99.90;;;;;;5013447;28;20042;-72
2023/05/17 10:59:23;;;;;;;4.47;1.20;;;15.00;99.90;;;;;;5013703;28;20054;-73
2023/05/17 11:02:02;;;;;;;5.07;1.10;;;15.50;99.90;;;;;;5013861;28;20455;-73
2023/05/17 11:04:32;;;;;;;5.55;1.73;;;15.70;99.90;;;;;;5012331;28;20058;-72
2023/05/17 11:07:20;;;;;;;5.63;1.48;;;15.40;99.90;;;;;;5013693;28;20045;-72
2023/05/17 11:10:16;;;;;;;3.80;1.30;;;15.10;99.90;;;;;;5013576;28;20057;-74
2023/05/17 11:12:52;;;;;;;4.38;1.00;;;14.70;99.90;;;;;;5012427;28;20518;-76
2023/05/17 11:15:22;;;;;;;5.13;1.60;;;14.70;99.90;;;;;;5017835;28;20091;-76
2023/05/17 11:17:50;;;;;;;5.32;1.30;;;14.80;99.90;;;;;;5016693;28;20439;-72
2023/05/17 11:20:25;;;;;;;5.05;1.60;;;14.70;99.90;;;;;;5017026;28;20104;-77
2023/05/17 11:23:06;;;;;;;7.47;1.42;;;14.50;99.90;;;;;;5017048;28;20046;-77
2023/05/17 11:25:37;;;;;;;5.88;1.27;;;14.50;99.90;;;;;;5015678;28;20057;-77
2023/05/17 11:28:20;;;;;;;4.53;1.38;;;14.70;99.90;;;;;;5016991;28;20053;-79
2023/05/17 11:30:52;;;;;;;4.85;1.17;;;15.00;99.90;;;;;;5015989;28;20117;-75
2023/05/17 11:33:20;;;;;;;4.72;1.10;;;15.20;99.90;;;;;;5017224;28;20505;-78
2023/05/17 11:35:46;;;;;;;4.20;1.10;;;15.10;99.90;;;;;;5015770;28;20041;-79
2023/05/17 11:38:26;;;;;;;5.72;1.50;;;14.90;99.90;;;;;;5015860;28;20045;-75
2023/05/17 11:40:56;;;;;;;3.85;1.30;;;14.90;99.90;;;;;;5016381;28;20052;-78
2023/05/17 11:43:29;;;;;;;5.38;1.30;;;15.00;99.90;;;;;;5017047;28;20143;-73
2023/05/17 11:46:00;;;;;;;6.75;1.02;;;15.20;99.90;;;;;;5015477;28;20057;-77
2023/05/17 11:48:26;;;;;;;5.13;1.30;;;15.20;99.90;;;;;;5016597;28;20046;-76
2023/05/17 11:50:55;;;;;;;5.18;1.30;;;15.20;99.90;;;;;;5016471;28;20046;-80
2023/05/17 11:53:21;;;;;;;5.18;1.20;;;15.20;99.90;;;;;;5016423;28;20054;-81
2023/05/17 11:55:49;;;;;;;4.45;1.10;;;15.10;99.90;;;;;;4998794;28;20042;-76
2023/05/17 11:58:22;;;;;;;5.90;1.38;;;15.00;99.90;;;;;;5016340;28;20049;-74
2023/05/17 12:00:53;;;;;;;5.43;1.35;;;15.10;99.90;;;;;;5016839;28;20085;-76
2023/05/17 12:03:23;;;;;;;4.65;1.30;;;15.40;99.90;;;;;;5016198;28;20042;-76
2023/05/17 12:06:11;;;;;;;5.30;1.20;;;15.50;99.90;;;;;;5016496;28;20491;-76
2023/05/17 12:08:39;;;;;;;5.00;1.30;;;15.40;99.90;;;;;;5015035;28;20054;-77
2023/05/17 12:11:06;;;;;;;4.53;1.23;;;15.30;99.90;;;;;;4998794;28;20128;-76
2023/05/17 12:13:33;;;;;;;3.25;1.10;;;15.10;99.90;;;;;;5016593;28;20121;-73
2023/05/17 12:16:06;;;;;;;2.67;1.27;;;15.30;99.90;;;;;;5014663;28;20487;-75
2023/05/17 12:18:36;;;;;;;3.65;1.38;;;15.80;99.90;;;;;;5015457;28;20397;-74
2023/05/17 12:21:02;;;;;;;3.42;1.02;;;16.20;99.90;;;;;;5015897;28;20045;-74
2023/05/17 12:23:36;;;;;;;4.07;1.20;;;16.10;99.90;;;;;;5014232;28;20053;-73
2023/05/17 12:26:05;;;;;;;4.43;1.20;;;16.00;99.90;;;;;;5015714;28;20053;-73
2023/05/17 12:28:32;;;;;;;4.50;1.25;;;15.90;99.90;;;;;;5015776;28;20091;-83
2023/05/17 12:31:01;;;;;;;5.82;1.40;;;16.20;99.90;;;;;;5015721;28;20103;-78
2023/05/17 12:33:32;;;;;;;5.03;1.00;;;16.60;99.90;;;;;;5015610;28;20050;-76
2023/05/17 12:36:00;;;;;;;2.75;1.13;;;16.80;99.90;;;;;;5015605;28;20121;-72
2023/05/17 12:38:31;;;;;;;3.00;1.20;;;17.00;99.90;;;;;;5015626;28;20037;-72
2023/05/17 12:40:59;;;;;;;3.90;1.30;;;17.10;99.90;;;;;;5015842;28;20509;-71
2023/05/17 12:43:25;;;;;;;5.80;1.42;;;16.90;99.90;;;;;;5015527;28;20042;-83
2023/05/17 12:45:51;;;;;;;2.88;1.02;;;16.80;99.90;;;;;;5014446;28;20050;-73
2023/05/17 12:48:17;;;;;;;3.75;1.20;;;17.00;99.90;;;;;;5015667;28;20144;-73
2023/05/17 12:50:45;;;;;;;3.70;1.35;;;17.00;99.90;;;;;;5014429;28;20054;-72
2023/05/17 12:53:10;;;;;;;4.65;1.40;;;17.00;99.90;;;;;;5015834;28;20060;-76